Time;durP1;ratioP1;P1;durP2;ratioP2;P2;SDS_P1;SDS_P2;PMS_P1;PMS_P2;Temp;Humidity;BMP_temperature;BMP_pressure;BME280_temperature;BME280_humidity;BME280_pressure;Samples;Min_cycle;Max_cycle;Signal;HPM_P1;HPM_P2
2022/04/06 00:03:01;;;;;;;14.98;8.73;;;;;;;7.83;100.00;99256.06;6025776;29;20048;-90
2022/04/06 00:06:03;;;;;;;13.27;7.35;;;;;;;7.79;100.00;99254.69;6036547;29;20499;-90
2022/04/06 00:09:05;;;;;;;13.55;6.25;;;;;;;7.83;100.00;99253.47;6032268;29;20045;-90
2022/04/06 00:12:07;;;;;;;11.50;6.53;;;;;;;7.77;100.00;99257.38;6028029;29;20149;-91
2022/04/06 00:15:11;;;;;;;9.98;5.65;;;;;;;7.74;100.00;99255.09;6056378;29;20047;-90
2022/04/06 00:18:13;;;;;;;9.48;5.38;;;;;;;7.76;100.00;99255.78;6028984;29;20073;-91
2022/04/06 00:21:16;;;;;;;9.55;5.68;;;;;;;7.72;100.00;99256.16;6042222;29;20044;-90
2022/04/06 00:24:18;;;;;;;9.02;5.78;;;;;;;7.68;100.00;99257.41;6040097;29;20060;-92
2022/04/06 00:27:20;;;;;;;9.27;5.53;;;;;;;7.59;100.00;99256.44;6031156;29;20461;-91
2022/04/06 00:30:22;;;;;;;9.18;4.65;;;;;;;7.64;100.00;99250.88;6044052;29;20449;-91
2022/04/06 00:33:24;;;;;;;9.73;5.13;;;;;;;7.57;100.00;99249.78;6030358;29;20482;-91
2022/04/06 00:36:26;;;;;;;11.25;5.32;;;;;;;7.60;100.00;99259.81;6037617;29;20045;-90
2022/04/06 00:39:28;;;;;;;7.20;3.63;;;;;;;7.58;100.00;99252.25;6044607;29;20120;-91
2022/04/06 00:42:30;;;;;;;9.05;4.25;;;;;;;7.53;100.00;99259.56;6055733;29;20109;-91
2022/04/06 00:45:32;;;;;;;8.25;4.53;;;;;;;7.55;100.00;99273.09;6039894;29;20490;-92
2022/04/06 00:48:34;;;;;;;7.97;5.03;;;;;;;7.60;100.00;99249.50;6041531;29;20130;-90
2022/04/06 00:51:45;;;;;;;8.07;4.95;;;;;;;7.66;100.00;99243.84;6027213;29;20411;-90
2022/04/06 00:54:48;;;;;;;10.80;6.15;;;;;;;7.65;100.00;99250.75;6038478;29;20526;-91
2022/04/06 00:57:50;;;;;;;11.82;6.50;;;;;;;7.62;100.00;99248.44;6037100;29;20049;-90
2022/04/06 01:00:52;;;;;;;12.68;6.93;;;;;;;7.63;100.00;99242.34;6044149;29;20048;-91
2022/04/06 01:03:54;;;;;;;14.23;8.00;;;;;;;7.75;100.00;99243.00;6025533;29;20473;-91
2022/04/06 01:06:56;;;;;;;15.15;8.55;;;;;;;7.72;100.00;99240.72;6030334;29;20044;-91
2022/04/06 01:09:59;;;;;;;16.17;9.68;;;;;;;7.72;100.00;99233.78;6044298;29;20511;-93
2022/04/06 01:13:02;;;;;;;18.77;10.90;;;;;;;7.75;100.00;99237.88;6029782;29;20586;-91
2022/04/06 01:16:04;;;;;;;20.63;12.65;;;;;;;7.91;100.00;99233.00;6035751;29;20481;-91
2022/04/06 01:19:07;;;;;;;23.13;13.25;;;;;;;7.97;100.00;99234.22;6044698;29;20044;-92
2022/04/06 01:22:15;;;;;;;23.75;13.45;;;;;;;7.90;100.00;99235.69;6041610;29;20037;-91
2022/04/06 01:25:17;;;;;;;26.33;14.43;;;;;;;7.91;100.00;99234.78;6049768;29;20780;-91
2022/04/06 01:28:19;;;;;;;31.70;14.68;;;;;;;8.00;100.00;99233.97;6049691;29;20044;-94
2022/04/06 01:31:21;;;;;;;27.83;15.63;;;;;;;8.04;100.00;99237.88;6043026;29;20045;-91
2022/04/06 01:34:23;;;;;;;29.17;16.30;;;;;;;8.09;100.00;99232.31;6044209;29;20049;-92
2022/04/06 01:37:25;;;;;;;27.20;14.98;;;;;;;8.04;100.00;99226.75;6030055;29;20899;-92
2022/04/06 01:40:28;;;;;;;25.67;15.15;;;;;;;8.13;100.00;99231.09;6028988;29;20419;-92
2022/04/06 01:43:30;;;;;;;25.63;14.68;;;;;;;8.16;100.00;99225.66;6045145;29;20049;-90
2022/04/06 01:46:33;;;;;;;30.92;15.75;;;;;;;8.12;100.00;99225.13;6036615;29;20045;-93
2022/04/06 01:52:56;;;;;;;33.03;16.05;;;;;;;8.05;100.00;99231.78;6038016;29;20446;-89
2022/04/06 01:55:58;;;;;;;28.55;15.73;;;;;;;8.01;100.00;99232.19;6027960;29;20500;-89
2022/04/06 01:59:00;;;;;;;27.65;16.00;;;;;;;8.14;100.00;99233.50;6037830;29;20041;-89
2022/04/06 02:02:03;;;;;;;32.35;16.33;;;;;;;8.06;100.00;99230.00;6045219;29;20140;-89
2022/04/06 02:05:06;;;;;;;28.27;14.93;;;;;;;8.02;100.00;99223.50;6037763;29;20041;-89
2022/04/06 02:08:08;;;;;;;31.05;16.13;;;;;;;8.06;100.00;99230.00;6031709;29;20042;-89
2022/04/06 02:11:10;;;;;;;31.98;15.85;;;;;;;8.02;100.00;99232.03;6027404;29;20050;-89
2022/04/06 02:14:13;;;;;;;36.05;16.05;;;;;;;8.13;100.00;99224.16;6059519;29;20033;-89
2022/04/06 02:17:15;;;;;;;22.70;14.85;;;;;;;8.05;100.00;99224.06;6042764;29;20057;-89
2022/04/06 02:20:17;;;;;;;27.77;16.55;;;;;;;8.08;100.00;99221.19;6041334;29;20127;-89
2022/04/06 02:23:23;;;;;;;33.50;16.15;;;;;;;7.99;100.00;99209.13;6042093;29;20116;-90
2022/04/06 02:26:27;;;;;;;30.08;15.73;;;;;;;7.94;100.00;99214.69;6042887;29;20130;-89
2022/04/06 02:29:29;;;;;;;32.40;17.05;;;;;;;8.04;100.00;99204.38;6046969;29;20084;-89
2022/04/06 02:32:31;;;;;;;29.60;16.55;;;;;;;8.10;100.00;99203.84;6050800;29;20065;-89
2022/04/06 02:35:33;;;;;;;31.30;16.40;;;;;;;8.17;100.00;99207.50;6035652;29;20041;-89
2022/04/06 02:38:38;;;;;;;28.20;16.45;;;;;;;8.10;100.00;99205.56;6039238;29;20048;-89
2022/04/06 02:41:40;;;;;;;34.58;16.38;;;;;;;8.11;100.00;99207.22;6041889;29;20542;-89
2022/04/06 02:44:42;;;;;;;29.33;15.77;;;;;;;8.09;100.00;99198.81;6024277;29;20041;-89
2022/04/06 02:47:44;;;;;;;27.55;16.50;;;;;;;8.13;100.00;99189.84;6030509;29;20069;-89
2022/04/06 02:50:46;;;;;;;35.15;16.45;;;;;;;8.13;100.00;99192.44;6043277;29;20041;-88
2022/04/06 02:53:48;;;;;;;32.08;16.88;;;;;;;8.13;100.00;99185.50;6045336;29;20098;-89
2022/04/06 02:56:50;;;;;;;32.03;17.75;;;;;;;8.07;100.00;99180.09;6036528;29;20100;-88
2022/04/06 02:59:52;;;;;;;32.15;16.40;;;;;;;8.22;100.00;99175.31;6050639;29;20181;-89
2022/04/06 03:02:54;;;;;;;30.08;16.95;;;;;;;8.10;100.00;99182.38;6039122;29;20586;-88
2022/04/06 03:05:56;;;;;;;31.23;16.55;;;;;;;7.99;100.00;99173.03;6025866;29;20045;-89
2022/04/06 03:08:58;;;;;;;31.83;16.48;;;;;;;8.02;100.00;99177.13;6044759;29;20049;-88
2022/04/06 03:11:59;;;;;;;29.92;16.92;;;;;;;8.08;100.00;99179.16;6037549;29;20427;-88
2022/04/06 03:15:02;;;;;;;30.75;17.13;;;;;;;8.22;100.00;99167.56;6046003;29;20100;-88
2022/04/06 03:18:04;;;;;;;29.67;16.27;;;;;;;8.26;100.00;99169.75;6037264;29;20044;-88
2022/04/06 03:21:06;;;;;;;30.25;16.40;;;;;;;8.18;100.00;99169.63;6026260;29;20411;-88
2022/04/06 03:24:08;;;;;;;26.52;16.30;;;;;;;8.20;100.00;99175.47;6032522;29;20062;-88
2022/04/06 03:27:10;;;;;;;32.03;16.90;;;;;;;8.10;100.00;99164.34;6026329;29;20037;-88
2022/04/06 03:30:12;;;;;;;36.92;18.40;;;;;;;8.10;100.00;99159.19;6039892;29;20419;-88
2022/04/06 03:33:15;;;;;;;35.13;17.48;;;;;;;8.01;100.00;99155.69;6050356;29;20053;-88
2022/04/06 03:36:17;;;;;;;31.70;18.95;;;;;;;8.08;100.00;99153.38;6040807;29;20397;-89
2022/04/06 03:39:19;;;;;;;30.52;17.80;;;;;;;8.02;100.00;99152.16;6039723;29;20049;-89
2022/04/06 03:42:21;;;;;;;38.13;19.55;;;;;;;8.06;100.00;99152.69;6031115;29;20064;-89
2022/04/06 03:45:23;;;;;;;39.88;18.85;;;;;;;8.00;100.00;99151.50;6060700;29;20040;-89
2022/04/06 03:48:25;;;;;;;39.90;18.55;;;;;;;8.02;100.00;99146.19;6037232;29;20412;-89
2022/04/06 03:51:27;;;;;;;34.08;17.17;;;;;;;8.21;100.00;99148.72;6049149;29;20036;-89
2022/04/06 03:54:29;;;;;;;39.65;19.40;;;;;;;8.14;100.00;99150.22;6028660;29;20045;-90
2022/04/06 03:57:31;;;;;;;36.17;19.48;;;;;;;8.16;100.00;99140.59;6037397;29;20040;-89
2022/04/06 04:00:34;;;;;;;38.65;20.27;;;;;;;8.19;100.00;99148.06;6055504;29;20040;-90
2022/04/06 04:03:36;;;;;;;40.17;19.73;;;;;;;8.10;100.00;99159.19;6049795;29;20385;-90
2022/04/06 04:06:38;;;;;;;38.42;20.92;;;;;;;8.14;100.00;99150.22;6039661;29;20052;-90
2022/04/06 04:09:40;;;;;;;36.58;20.02;;;;;;;8.23;100.00;99154.56;6063401;29;20048;-90
2022/04/06 04:12:43;;;;;;;33.42;19.48;;;;;;;8.13;100.00;99154.59;6045820;29;20131;-90
2022/04/06 04:15:45;;;;;;;38.08;20.58;;;;;;;8.09;100.00;99157.56;6035007;29;20539;-90
2022/04/06 04:18:46;;;;;;;34.50;18.80;;;;;;;8.04;100.00;99157.19;6035699;29;20054;-90
2022/04/06 04:21:48;;;;;;;37.92;19.55;;;;;;;8.04;100.00;99157.97;6024897;29;20038;-90
2022/04/06 04:24:52;;;;;;;37.53;20.27;;;;;;;8.16;100.00;99156.06;6035840;29;20061;-90
2022/04/06 04:27:54;;;;;;;38.17;20.45;;;;;;;8.09;100.00;99153.22;6037278;29;21061;-90
2022/04/06 04:30:58;;;;;;;37.40;20.08;;;;;;;8.01;100.00;99149.72;6037554;29;20044;-90
2022/04/06 04:34:04;;;;;;;37.10;20.90;;;;;;;8.04;100.00;99139.94;6031209;29;20102;-90
2022/04/06 04:37:06;;;;;;;37.83;20.02;;;;;;;8.03;100.00;99153.00;6035128;29;20053;-90
2022/04/06 04:40:09;;;;;;;36.55;20.05;;;;;;;8.09;100.00;99139.53;6029024;29;20563;-90
2022/04/06 04:43:10;;;;;;;36.65;19.65;;;;;;;8.13;100.00;99149.44;6038530;29;20617;-90
2022/04/06 04:46:13;;;;;;;36.22;20.58;;;;;;;8.13;100.00;99139.13;6044837;29;20061;-90
2022/04/06 04:49:14;;;;;;;33.72;19.50;;;;;;;8.05;100.00;99157.06;6037078;29;20057;-91
2022/04/06 04:52:17;;;;;;;37.10;19.83;;;;;;;8.08;100.00;99161.91;6046758;29;20048;-90
2022/04/06 04:55:19;;;;;;;37.20;19.27;;;;;;;8.04;100.00;99159.75;6040528;29;20104;-90
2022/04/06 04:58:20;;;;;;;37.30;20.48;;;;;;;7.96;100.00;99152.72;6040227;29;20416;-90
2022/04/06 05:01:22;;;;;;;34.20;19.55;;;;;;;8.01;100.00;99157.47;6041090;29;20053;-90
2022/04/06 05:04:24;;;;;;;37.83;19.27;;;;;;;7.89;100.00;99142.16;6037233;29;20707;-90
2022/04/06 05:07:26;;;;;;;38.10;19.98;;;;;;;7.96;100.00;99153.53;6042944;29;20041;-90
2022/04/06 05:10:28;;;;;;;37.58;20.58;;;;;;;7.92;100.00;99159.09;6039050;29;20626;-91
2022/04/06 05:13:31;;;;;;;32.60;18.55;;;;;;;8.05;100.00;99159.63;6036671;29;20456;-90
2022/04/06 05:16:33;;;;;;;30.52;17.80;;;;;;;8.01;100.00;99155.69;6045309;29;20746;-90
2022/04/06 05:19:34;;;;;;;33.95;19.27;;;;;;;8.01;100.00;99157.47;6042483;29;20628;-91
2022/04/06 05:22:37;;;;;;;33.65;18.75;;;;;;;7.93;100.00;99158.97;6044249;29;20055;-90
2022/04/06 05:25:39;;;;;;;36.45;18.55;;;;;;;7.98;100.00;99161.13;6046228;29;20041;-91
2022/04/06 05:28:41;;;;;;;38.05;20.17;;;;;;;7.97;100.00;99152.59;6039195;29;20583;-90
2022/04/06 05:31:43;;;;;;;31.10;18.48;;;;;;;7.97;100.00;99159.50;6035197;29;20538;-90
2022/04/06 05:34:45;;;;;;;29.48;17.13;;;;;;;7.92;100.00;99152.16;6043243;29;20057;-91
2022/04/06 05:37:47;;;;;;;30.83;17.88;;;;;;;7.95;100.00;99162.22;6043040;29;20100;-91
2022/04/06 05:40:49;;;;;;;30.10;16.30;;;;;;;7.95;100.00;99157.06;6041081;29;20058;-90
2022/04/06 05:43:51;;;;;;;29.45;16.08;;;;;;;7.92;100.00;99162.47;6039561;29;20047;-91
2022/04/06 05:46:53;;;;;;;30.25;16.33;;;;;;;7.84;100.00;99158.97;6047739;29;20049;-91
2022/04/06 05:49:56;;;;;;;32.30;17.15;;;;;;;7.79;100.00;99161.94;6036259;29;20053;-91
2022/04/06 05:52:58;;;;;;;30.45;16.08;;;;;;;7.79;100.00;99161.16;6038286;29;20053;-91
2022/04/06 05:55:59;;;;;;;28.52;15.35;;;;;;;7.83;100.00;99162.50;6040243;29;20065;-90
2022/04/06 05:59:02;;;;;;;27.40;15.18;;;;;;;7.85;100.00;99161.41;6040187;29;20148;-91
2022/04/06 06:02:04;;;;;;;29.40;16.27;;;;;;;7.77;100.00;99156.94;6028521;29;20096;-91
2022/04/06 06:05:06;;;;;;;30.10;16.77;;;;;;;7.85;100.00;99158.84;6039460;29;20049;-91
2022/04/06 06:08:08;;;;;;;35.35;15.63;;;;;;;7.91;100.00;99162.63;6040243;29;20583;-91
2022/04/06 06:11:10;;;;;;;29.73;16.15;;;;;;;7.85;100.00;99158.00;6045610;29;20112;-91
2022/04/06 06:14:12;;;;;;;28.63;15.80;;;;;;;7.95;100.00;99169.94;6025318;29;20042;-91
2022/04/06 06:17:14;;;;;;;31.92;16.48;;;;;;;8.09;100.00;99166.09;6024337;29;21121;-91
2022/04/06 06:20:16;;;;;;;29.05;15.95;;;;;;;8.09;100.00;99163.53;6046068;29;20068;-91
2022/04/06 06:23:18;;;;;;;29.60;16.60;;;;;;;8.18;100.00;99161.91;6029922;29;20058;-92
2022/04/06 06:26:20;;;;;;;36.42;16.10;;;;;;;8.25;100.00;99162.13;6031920;29;20052;-92
2022/04/06 06:29:22;;;;;;;29.58;15.75;;;;;;;8.25;100.00;99168.13;6032107;29;20053;-92
2022/04/06 06:32:24;;;;;;;28.75;16.88;;;;;;;8.41;100.00;99170.13;6024594;29;20052;-92
2022/04/06 06:35:28;;;;;;;30.33;16.92;;;;;;;8.32;100.00;99163.19;6036106;29;20851;-92
2022/04/06 06:38:30;;;;;;;28.65;15.90;;;;;;;8.27;100.00;99161.03;6039312;29;20423;-92
2022/04/06 06:41:32;;;;;;;29.60;15.52;;;;;;;8.32;100.00;99158.88;6046019;29;20582;-92
2022/04/06 06:44:38;;;;;;;29.70;15.88;;;;;;;8.37;100.00;99166.16;6025950;29;20034;-92
2022/04/06 06:47:40;;;;;;;29.33;16.23;;;;;;;8.51;100.00;99159.78;6027586;29;20051;-92
2022/04/06 06:50:42;;;;;;;28.15;15.20;;;;;;;8.45;100.00;99157.75;6029642;29;20355;-93
2022/04/06 06:53:44;;;;;;;27.77;14.98;;;;;;;8.52;100.00;99163.97;6022872;29;20124;-93
2022/04/06 06:56:46;;;;;;;30.38;15.18;;;;;;;8.53;100.00;99150.16;6030025;29;20647;-92
2022/04/06 06:59:48;;;;;;;28.15;15.75;;;;;;;8.61;100.00;99150.25;6030319;29;20078;-93
2022/04/06 07:02:50;;;;;;;26.63;15.00;;;;;;;8.71;100.00;99165.69;6020935;29;20499;-92
2022/04/06 07:05:52;;;;;;;25.20;14.98;;;;;;;8.66;100.00;99158.38;6030316;29;20050;-92
2022/04/06 07:08:57;;;;;;;25.27;13.88;;;;;;;8.77;100.00;99152.19;6047467;29;20438;-93
2022/04/06 07:11:59;;;;;;;23.73;14.40;;;;;;;8.80;100.00;99159.66;6030604;29;20064;-93
2022/04/06 07:15:01;;;;;;;22.70;13.95;;;;;;;8.90;100.00;99154.47;6027638;29;20049;-92
2022/04/06 07:18:06;;;;;;;23.38;13.95;;;;;;;8.94;100.00;99145.47;6046038;29;20635;-93
2022/04/06 07:21:08;;;;;;;21.40;13.70;;;;;;;9.04;100.00;99151.38;6030069;29;20503;-93
2022/04/06 07:24:10;;;;;;;20.95;13.10;;;;;;;9.09;100.00;99149.16;6026403;29;20392;-93
2022/04/06 07:27:12;;;;;;;21.75;12.07;;;;;;;9.25;100.00;99145.94;6034941;29;21435;-93
2022/04/06 07:30:15;;;;;;;19.50;12.60;;;;;;;9.38;100.00;99145.59;6039207;29;20048;-93
2022/04/06 07:33:17;;;;;;;23.08;13.65;;;;;;;9.53;100.00;99138.13;6030551;29;20037;-93
2022/04/06 07:36:18;;;;;;;19.10;12.10;;;;;;;9.44;100.00;99144.97;6031508;29;20797;-92
2022/04/06 07:39:20;;;;;;;23.90;11.85;;;;;;;9.61;100.00;99131.25;6032579;29;20616;-92
2022/04/06 07:42:22;;;;;;;16.25;11.30;;;;;;;9.87;100.00;99117.56;6021426;29;20354;-92
2022/04/06 07:45:24;;;;;;;15.88;10.35;;;;;;;10.12;100.00;99124.50;6027358;29;20220;-92
2022/04/06 07:48:27;;;;;;;17.75;10.88;;;;;;;10.09;100.00;99129.97;6025086;29;21088;-92
2022/04/06 07:51:30;;;;;;;15.15;10.30;;;;;;;10.08;100.00;99132.69;6027479;29;20455;-92
2022/04/06 07:54:31;;;;;;;15.38;9.55;;;;;;;10.25;100.00;99134.41;6022410;29;20586;-92
2022/04/06 07:57:35;;;;;;;13.23;9.95;;;;;;;10.42;100.00;99130.19;6024734;29;20041;-91
2022/04/06 08:00:37;;;;;;;17.85;10.43;;;;;;;10.50;100.00;99137.16;6024759;29;20152;-92
2022/04/06 08:03:39;;;;;;;14.18;9.40;;;;;;;10.49;100.00;99130.38;6033135;29;20539;-92
2022/04/06 08:06:41;;;;;;;15.55;9.23;;;;;;;10.45;100.00;99144.56;6037055;29;20037;-92
2022/04/06 08:09:43;;;;;;;13.05;9.23;;;;;;;10.16;100.00;99143.13;6033787;29;20403;-92
2022/04/06 08:12:46;;;;;;;13.95;8.95;;;;;;;9.97;100.00;99140.72;6028447;29;20623;-92
2022/04/06 08:15:48;;;;;;;14.20;9.73;;;;;;;9.62;100.00;99134.66;6028101;29;20049;-92
2022/04/06 08:18:50;;;;;;;12.18;9.30;;;;;;;9.63;100.00;99144.81;6021847;29;20464;-92
2022/04/06 08:21:53;;;;;;;12.55;8.38;;;;;;;9.58;100.00;99134.13;6027381;29;20436;-92
2022/04/06 08:24:55;;;;;;;15.00;8.95;;;;;;;9.67;100.00;99133.25;6008346;29;20053;-92
2022/04/06 08:27:56;;;;;;;12.85;8.23;;;;;;;9.72;100.00;99135.38;6030771;29;20285;-92
2022/04/06 08:30:58;;;;;;;13.40;8.43;;;;;;;9.76;100.00;99128.94;6033116;29;20045;-92
2022/04/06 08:34:00;;;;;;;13.65;8.07;;;;;;;9.75;100.00;99134.28;6029337;29;20049;-92
2022/04/06 08:37:03;;;;;;;13.43;8.32;;;;;;;9.67;100.00;99133.25;6032272;29;20478;-92
2022/04/06 08:40:12;;;;;;;12.80;8.35;;;;;;;9.74;100.00;99130.88;6030848;29;20198;-92
2022/04/06 08:43:22;;;;;;;9.57;6.85;;;;;;;9.58;100.00;99131.53;6027520;29;20046;-92
2022/04/06 08:46:25;;;;;;;11.32;6.82;;;;;;;9.55;100.00;99131.84;6030708;29;20049;-92
2022/04/06 08:49:27;;;;;;;9.30;6.28;;;;;;;9.58;100.00;99123.78;6029916;29;20049;-92
2022/04/06 08:52:36;;;;;;;9.57;6.47;;;;;;;9.56;100.00;99122.31;6020373;29;20056;-92
2022/04/06 08:55:57;;;;;;;10.50;6.43;;;;;;;9.55;100.00;99128.47;6035688;29;20100;-92
2022/04/06 08:59:00;;;;;;;12.40;6.35;;;;;;;9.57;100.00;99135.09;6044223;29;20045;-92
2022/04/06 09:02:02;;;;;;;9.98;5.90;;;;;;;9.67;100.00;99124.69;6023178;29;20045;-92
2022/04/06 09:05:04;;;;;;;7.65;5.07;;;;;;;9.76;100.00;99128.13;6031532;29;20037;-94
2022/04/06 09:08:07;;;;;;;8.73;5.60;;;;;;;9.66;100.00;99123.88;6025819;29;20044;-93
2022/04/06 09:11:17;;;;;;;9.38;5.82;;;;;;;9.57;100.00;99126.53;6037474;29;20081;-93
2022/04/06 09:14:33;;;;;;;10.50;5.20;;;;;;;9.51;100.00;99124.53;6039199;29;20056;-94
2022/04/06 09:17:45;;;;;;;11.73;5.63;;;;;;;9.51;100.00;99119.38;6044829;29;20427;-94
2022/04/06 09:20:47;;;;;;;12.20;5.78;;;;;;;9.48;100.00;99134.19;6024726;29;20068;-93
2022/04/06 09:23:49;;;;;;;7.35;5.30;;;;;;;9.47;100.00;99126.63;6051967;29;20045;-93
2022/04/06 09:26:59;;;;;;;9.57;5.40;;;;;;;9.49;100.00;99125.50;6037356;29;20411;-94
2022/04/06 09:30:09;;;;;;;7.15;5.22;;;;;;;9.52;100.00;99133.94;6035560;29;20049;-94
2022/04/06 09:33:20;;;;;;;10.00;5.05;;;;;;;9.62;100.00;99127.72;6043821;29;20440;-94
2022/04/06 09:36:22;;;;;;;6.15;5.00;;;;;;;9.62;100.00;99129.50;6031340;29;20041;-94
2022/04/06 09:39:48;;;;;;;9.18;5.30;;;;;;;9.54;100.00;99127.66;6037244;29;20480;-94
2022/04/06 09:42:51;;;;;;;6.80;5.50;;;;;;;9.48;100.00;99125.66;6057700;29;20049;-94
2022/04/06 09:49:25;;;;;;;8.73;5.47;;;;;;;9.48;100.00;99123.06;6032118;29;20076;-92
2022/04/06 09:52:30;;;;;;;12.80;5.80;;;;;;;9.38;100.00;99135.25;6035759;29;20045;-93
2022/04/06 09:55:33;;;;;;;6.78;5.30;;;;;;;9.28;100.00;99136.13;6037799;29;20037;-93
2022/04/06 09:58:36;;;;;;;11.10;5.75;;;;;;;9.23;100.00;99127.22;6030374;29;20080;-93
2022/04/06 10:01:44;;;;;;;9.35;5.60;;;;;;;9.30;100.00;99128.25;6049189;29;20037;-92
2022/04/06 10:04:49;;;;;;;8.40;5.93;;;;;;;9.54;100.00;99126.81;6038943;29;20063;-91
2022/04/06 10:07:53;;;;;;;11.63;6.20;;;;;;;9.59;100.00;99130.59;6041146;29;20053;-93
2022/04/06 10:10:58;;;;;;;7.38;5.32;;;;;;;9.62;100.00;99122.53;6033367;29;20202;-92
2022/04/06 10:14:02;;;;;;;9.63;5.40;;;;;;;9.71;100.00;99126.00;6052250;29;20082;-92
2022/04/06 10:17:05;;;;;;;9.20;5.88;;;;;;;9.62;100.00;99126.91;6030175;29;20052;-92
2022/04/06 10:20:27;;;;;;;9.25;5.63;;;;;;;9.57;100.00;99136.88;6026496;29;20041;-93
2022/04/06 10:23:51;;;;;;;8.30;5.43;;;;;;;9.50;100.00;99128.91;6027430;29;20558;-92
2022/04/06 10:27:22;;;;;;;7.22;5.78;;;;;;;9.35;100.00;99115.69;6030495;29;20045;-92
2022/04/06 10:30:26;;;;;;;7.68;5.72;;;;;;;9.33;100.00;99127.94;6036496;29;20076;-92
2022/04/06 10:33:28;;;;;;;9.88;6.00;;;;;;;9.22;100.00;99120.44;6035086;29;21341;-92
2022/04/06 10:36:30;;;;;;;10.20;5.63;;;;;;;9.18;100.00;99124.25;6028713;29;20511;-92
2022/04/06 10:39:50;;;;;;;10.73;5.75;;;;;;;9.16;100.00;99121.81;6026559;29;20072;-93
2022/04/06 10:42:52;;;;;;;8.88;5.63;;;;;;;9.16;100.00;99106.31;6039191;29;20052;-92
2022/04/06 10:45:55;;;;;;;9.65;4.93;;;;;;;9.22;100.00;99100.59;6041692;29;20045;-93
2022/04/06 10:49:09;;;;;;;6.85;4.72;;;;;;;9.41;100.00;99103.97;6034320;29;20088;-93
2022/04/06 10:52:25;;;;;;;9.70;5.43;;;;;;;9.46;100.00;99097.38;6025497;29;20042;-93
2022/04/06 10:55:27;;;;;;;7.63;4.90;;;;;;;9.45;100.00;99097.53;6041437;29;20045;-93
2022/04/06 10:58:57;;;;;;;8.32;5.68;;;;;;;9.39;100.00;99101.53;6044745;29;20559;-93
2022/04/06 11:02:16;;;;;;;9.05;5.97;;;;;;;9.54;100.00;99096.66;6021105;29;20040;-93
2022/04/06 11:05:48;;;;;;;14.15;6.22;;;;;;;10.00;100.00;99092.09;6052399;29;20565;-92
2022/04/06 11:12:14;;;;;;;7.70;5.38;;;;;;;9.98;100.00;99081.09;6043738;29;20044;-92
2022/04/06 11:15:38;;;;;;;6.75;5.53;;;;;;;9.91;100.00;99078.34;6046175;29;20036;-92
2022/04/06 11:18:47;;;;;;;9.65;5.95;;;;;;;10.05;100.00;99070.97;6042495;29;20060;-92
2022/04/06 11:21:58;;;;;;;9.02;5.85;;;;;;;10.45;100.00;99070.38;6042950;29;20045;-93
2022/04/06 11:25:00;;;;;;;7.45;5.20;;;;;;;10.68;100.00;99068.03;6040841;29;20634;-93
2022/04/06 11:28:07;;;;;;;6.20;4.30;;;;;;;10.75;100.00;99074.16;6042852;29;20814;-93
2022/04/06 11:31:11;;;;;;;4.85;3.83;;;;;;;10.91;100.00;99076.00;6031615;29;20464;-93
2022/04/06 11:34:35;;;;;;;4.97;3.40;;;;;;;11.42;100.00;99058.53;6043882;29;20090;-92
2022/04/06 11:37:48;;;;;;;4.95;3.47;;;;;;;12.18;100.00;99056.47;6045502;29;20221;-93
2022/04/06 11:40:56;;;;;;;7.68;3.33;;;;;;;12.42;100.00;99060.78;6039112;29;20105;-93
2022/04/06 11:44:00;;;;;;;6.35;3.65;;;;;;;12.24;100.00;99055.78;6043033;29;20081;-93
2022/04/06 11:47:03;;;;;;;4.28;3.58;;;;;;;12.16;100.00;99060.22;6043235;29;20044;-93
2022/04/06 11:50:11;;;;;;;4.95;3.47;;;;;;;12.21;100.00;99061.31;6031201;29;20177;-93
2022/04/06 11:53:22;;;;;;;5.05;3.47;;;;;;;12.12;99.19;99054.53;6041357;29;20132;-93
2022/04/06 11:56:26;;;;;;;8.20;4.00;;;;;;;12.27;100.00;99045.09;6039700;29;20041;-93
2022/04/06 11:59:31;;;;;;;5.80;3.55;;;;;;;12.34;97.97;99049.59;6037580;29;20052;-92
2022/04/06 12:02:53;;;;;;;6.88;3.90;;;;;;;12.43;100.00;99046.00;6046435;29;20041;-92
2022/04/06 12:05:56;;;;;;;6.60;3.53;;;;;;;12.40;100.00;99046.34;6039769;29;20057;-93
2022/04/06 12:08:58;;;;;;;5.68;3.85;;;;;;;12.31;99.66;99039.56;6047137;29;20418;-93
2022/04/06 12:12:04;;;;;;;6.15;3.60;;;;;;;12.48;100.00;99028.13;6038637;29;20080;-93
2022/04/06 12:15:10;;;;;;;6.03;3.42;;;;;;;12.46;99.78;99030.09;6031116;29;20471;-93
2022/04/06 12:18:13;;;;;;;9.48;4.00;;;;;;;12.54;98.90;99029.25;6026697;29;20397;-93
2022/04/06 12:21:23;;;;;;;4.28;3.28;;;;;;;12.65;97.78;99027.06;6015545;29;20088;-94
2022/04/06 12:24:36;;;;;;;10.23;3.72;;;;;;;12.49;95.72;99035.75;6033290;29;20045;-93
2022/04/06 12:27:38;;;;;;;9.05;3.53;;;;;;;12.10;99.02;99042.72;6025567;29;20068;-93
2022/04/06 12:31:02;;;;;;;5.05;3.38;;;;;;;11.54;100.00;99040.06;6021181;29;20062;-93
2022/04/06 12:34:04;;;;;;;4.30;3.53;;;;;;;11.35;100.00;99047.22;6029863;29;20060;-93
2022/04/06 12:40:28;;;;;;;7.93;3.83;;;;;;;11.14;100.00;99026.19;6026064;29;20470;-93
2022/04/06 12:43:30;;;;;;;7.50;3.60;;;;;;;11.11;100.00;99029.09;6027601;29;20049;-93
2022/04/06 12:46:47;;;;;;;7.10;3.15;;;;;;;11.25;100.00;99025.84;6037224;29;20585;-93
2022/04/06 12:49:49;;;;;;;5.68;3.13;;;;;;;11.37;100.00;99016.75;6029816;29;20101;-93
2022/04/06 12:53:10;;;;;;;4.95;3.13;;;;;;;11.43;100.00;99023.09;6033632;29;20124;-92
2022/04/06 12:56:12;;;;;;;4.22;2.80;;;;;;;11.64;100.00;99018.19;6029132;29;20045;-92
2022/04/06 12:59:14;;;;;;;3.72;2.97;;;;;;;11.60;100.00;99008.31;6028322;29;20535;-93
2022/04/06 13:02:23;;;;;;;5.68;2.40;;;;;;;11.50;100.00;99015.47;6033972;29;20514;-93
2022/04/06 13:05:25;;;;;;;7.50;2.50;;;;;;;11.50;100.00;99000.75;6035394;29;20106;-93
2022/04/06 13:08:27;;;;;;;4.05;2.33;;;;;;;11.38;100.00;99000.25;6035256;29;20044;-93
2022/04/06 13:11:29;;;;;;;6.00;2.45;;;;;;;11.34;100.00;99000.75;6029447;29;20754;-93
2022/04/06 13:14:31;;;;;;;3.03;2.17;;;;;;;11.29;100.00;99003.03;6032503;29;20045;-93
2022/04/06 13:17:36;;;;;;;4.03;2.63;;;;;;;11.11;100.00;98998.03;6032690;29;20119;-92
2022/04/06 13:20:38;;;;;;;10.60;2.95;;;;;;;11.02;100.00;99001.56;6030969;29;20056;-93
2022/04/06 13:23:40;;;;;;;3.60;2.63;;;;;;;10.93;100.00;99001.59;6026384;29;20624;-93
2022/04/06 13:26:42;;;;;;;4.18;2.60;;;;;;;10.77;100.00;98993.78;6036905;29;20057;-93
2022/04/06 13:29:44;;;;;;;4.88;2.65;;;;;;;10.85;100.00;98990.41;6040792;29;20129;-93
2022/04/06 13:32:47;;;;;;;3.72;2.90;;;;;;;10.92;100.00;98981.03;6032494;29;20060;-93
2022/04/06 13:35:50;;;;;;;8.68;3.42;;;;;;;11.06;100.00;98987.34;6037365;29;20133;-93
2022/04/06 13:38:53;;;;;;;4.75;3.45;;;;;;;11.14;100.00;98980.38;6025154;29;20052;-93
2022/04/06 13:41:56;;;;;;;5.25;3.20;;;;;;;11.15;100.00;98979.38;6028037;29;20045;-92
2022/04/06 13:44:58;;;;;;;4.90;3.33;;;;;;;11.23;100.00;98968.22;6030793;29;20072;-93
2022/04/06 13:48:00;;;;;;;4.63;3.75;;;;;;;11.05;100.00;98965.00;6031828;29;20144;-93
2022/04/06 13:51:05;;;;;;;5.50;3.60;;;;;;;11.10;100.00;98967.91;6040804;29;20052;-92
2022/04/06 13:54:07;;;;;;;5.25;3.90;;;;;;;11.26;100.00;98967.09;6037616;29;20054;-93
2022/04/06 13:57:09;;;;;;;4.47;4.07;;;;;;;11.54;100.00;98960.53;6017304;29;20049;-93
2022/04/06 14:00:14;;;;;;;4.10;3.80;;;;;;;11.68;100.00;98959.06;6034196;29;20041;-93
2022/04/06 14:03:17;;;;;;;5.63;4.05;;;;;;;11.86;100.00;98951.06;6041194;29;20052;-93
2022/04/06 14:06:19;;;;;;;4.38;3.80;;;;;;;12.14;100.00;98948.03;6037449;29;20473;-93
2022/04/06 14:09:22;;;;;;;5.28;3.83;;;;;;;11.96;100.00;98950.88;6038811;29;20052;-93
2022/04/06 14:12:24;;;;;;;4.13;3.50;;;;;;;11.59;100.00;98952.28;6036968;29;20185;-93
2022/04/06 14:15:26;;;;;;;5.05;3.80;;;;;;;11.35;100.00;98941.03;6039465;29;20172;-93
2022/04/06 14:18:28;;;;;;;6.63;4.05;;;;;;;11.33;100.00;98932.59;6032690;29;20041;-92
2022/04/06 14:21:33;;;;;;;4.97;4.40;;;;;;;11.34;100.00;98930.81;6034661;29;20045;-93
2022/04/06 14:24:36;;;;;;;5.57;4.20;;;;;;;11.31;100.00;98919.00;6032320;29;20096;-93
2022/04/06 14:27:37;;;;;;;7.40;4.20;;;;;;;11.60;100.00;98909.81;6032216;29;20041;-93